sensor_id;sensor_type;location;lat;lon;timestamp;pressure;altitude;pressure_sealevel;temperature;humidity
33163;BME280;29282;45.656;11.302;2022-11-30T00:00:12;98478.38;;;18.62;51.34
33163;BME280;29282;45.656;11.302;2022-11-30T00:02:38;98476.75;;;18.61;51.46
33163;BME280;29282;45.656;11.302;2022-11-30T00:05:04;98474.03;;;18.61;51.44
33163;BME280;29282;45.656;11.302;2022-11-30T00:07:30;98473.88;;;18.58;51.40
33163;BME280;29282;45.656;11.302;2022-11-30T00:09:55;98473.06;;;18.57;51.47
33163;BME280;29282;45.656;11.302;2022-11-30T00:12:21;98475.78;;;18.57;51.26
33163;BME280;29282;45.656;11.302;2022-11-30T00:14:46;98470.00;;;18.59;51.44
33163;BME280;29282;45.656;11.302;2022-11-30T00:17:12;98474.19;;;18.56;51.38
33163;BME280;29282;45.656;11.302;2022-11-30T00:19:38;98478.53;;;18.57;51.36
33163;BME280;29282;45.656;11.302;2022-11-30T00:22:04;98474.53;;;18.54;51.53
33163;BME280;29282;45.656;11.302;2022-11-30T00:24:29;98471.44;;;18.56;51.24
33163;BME280;29282;45.656;11.302;2022-11-30T00:26:55;98478.88;;;18.55;51.30
33163;BME280;29282;45.656;11.302;2022-11-30T00:29:20;98473.72;;;18.54;51.31
33163;BME280;29282;45.656;11.302;2022-11-30T00:31:46;98476.13;;;18.55;51.38
33163;BME280;29282;45.656;11.302;2022-11-30T00:34:11;98473.72;;;18.54;51.33
33163;BME280;29282;45.656;11.302;2022-11-30T00:36:37;98474.84;;;18.53;51.41
33163;BME280;29282;45.656;11.302;2022-11-30T00:39:03;98476.13;;;18.55;51.21
33163;BME280;29282;45.656;11.302;2022-11-30T00:41:29;98474.53;;;18.54;51.25
33163;BME280;29282;45.656;11.302;2022-11-30T00:43:54;98476.78;;;18.52;51.32
33163;BME280;29282;45.656;11.302;2022-11-30T00:46:20;98478.25;;;18.50;51.26
33163;BME280;29282;45.656;11.302;2022-11-30T00:48:45;98474.41;;;18.51;51.33
33163;BME280;29282;45.656;11.302;2022-11-30T00:51:12;98479.88;;;18.51;51.25
33163;BME280;29282;45.656;11.302;2022-11-30T00:53:39;98476.00;;;18.52;51.39
33163;BME280;29282;45.656;11.302;2022-11-30T00:56:05;98475.19;;;18.51;51.12
33163;BME280;29282;45.656;11.302;2022-11-30T00:58:31;98468.41;;;18.49;51.25
33163;BME280;29282;45.656;11.302;2022-11-30T01:00:57;98475.19;;;18.51;51.16
33163;BME280;29282;45.656;11.302;2022-11-30T01:03:22;98467.28;;;18.50;51.32
33163;BME280;29282;45.656;11.302;2022-11-30T01:05:48;98468.09;;;18.50;51.19
33163;BME280;29282;45.656;11.302;2022-11-30T01:08:14;98466.00;;;18.47;51.21
33163;BME280;29282;45.656;11.302;2022-11-30T01:10:41;98468.75;;;18.47;51.13
33163;BME280;29282;45.656;11.302;2022-11-30T01:13:07;98468.75;;;18.47;51.17
33163;BME280;29282;45.656;11.302;2022-11-30T01:15:38;98463.25;;;18.47;51.18
33163;BME280;29282;45.656;11.302;2022-11-30T01:18:05;98464.75;;;18.45;51.26
33163;BME280;29282;45.656;11.302;2022-11-30T01:20:31;98463.59;;;18.46;51.15
33163;BME280;29282;45.656;11.302;2022-11-30T01:22:56;98462.44;;;18.47;51.14
33163;BME280;29282;45.656;11.302;2022-11-30T01:25:22;98463.59;;;18.46;50.95
33163;BME280;29282;45.656;11.302;2022-11-30T01:27:48;98463.94;;;18.44;51.28
33163;BME280;29282;45.656;11.302;2022-11-30T01:30:15;98458.09;;;18.46;51.04
33163;BME280;29282;45.656;11.302;2022-11-30T01:32:41;98457.75;;;18.47;51.06
33163;BME280;29282;45.656;11.302;2022-11-30T01:35:07;98448.28;;;18.45;51.07
33163;BME280;29282;45.656;11.302;2022-11-30T01:37:39;98457.63;;;18.44;51.32
33163;BME280;29282;45.656;11.302;2022-11-30T01:40:06;98463.09;;;18.44;51.23
33163;BME280;29282;45.656;11.302;2022-11-30T01:42:31;98462.31;;;18.43;51.16
33163;BME280;29282;45.656;11.302;2022-11-30T01:44:59;98462.66;;;18.42;51.07
33163;BME280;29282;45.656;11.302;2022-11-30T01:47:37;98454.44;;;18.42;51.17
33163;BME280;29282;45.656;11.302;2022-11-30T01:50:08;98455.09;;;18.39;50.97
33163;BME280;29282;45.656;11.302;2022-11-30T01:52:39;98454.28;;;18.38;51.29
33163;BME280;29282;45.656;11.302;2022-11-30T01:55:33;98442.50;;;18.38;51.45
33163;BME280;29282;45.656;11.302;2022-11-30T01:58:10;98448.00;;;18.38;51.12
33163;BME280;29282;45.656;11.302;2022-11-30T02:00:37;98446.84;;;18.39;51.23
33163;BME280;29282;45.656;11.302;2022-11-30T02:03:15;98444.09;;;18.39;51.16
33163;BME280;29282;45.656;11.302;2022-11-30T02:05:44;98451.53;;;18.38;51.18
33163;BME280;29282;45.656;11.302;2022-11-30T02:08:10;98448.00;;;18.38;51.23
33163;BME280;29282;45.656;11.302;2022-11-30T02:10:39;98446.06;;;18.38;50.94
33163;BME280;29282;45.656;11.302;2022-11-30T02:19:02;98450.41;;;18.39;51.05
33163;BME280;29282;45.656;11.302;2022-11-30T02:21:40;98460.88;;;18.37;51.03
33163;BME280;29282;45.656;11.302;2022-11-30T02:30:09;98455.09;;;18.39;51.04
33163;BME280;29282;45.656;11.302;2022-11-30T02:35:29;98451.84;;;18.37;51.06
33163;BME280;29282;45.656;11.302;2022-11-30T02:37:57;98451.84;;;18.37;50.96
33163;BME280;29282;45.656;11.302;2022-11-30T02:40:25;98458.47;;;18.36;50.92
33163;BME280;29282;45.656;11.302;2022-11-30T02:42:51;98459.28;;;18.36;50.97
33163;BME280;29282;45.656;11.302;2022-11-30T02:45:28;98459.28;;;18.36;51.04
33163;BME280;29282;45.656;11.302;2022-11-30T02:47:58;98454.13;;;18.35;50.90
33163;BME280;29282;45.656;11.302;2022-11-30T02:50:33;98449.44;;;18.35;50.95
33163;BME280;29282;45.656;11.302;2022-11-30T02:53:00;98445.44;;;18.33;50.97
33163;BME280;29282;45.656;11.302;2022-11-30T02:55:27;98444.28;;;18.34;50.97
33163;BME280;29282;45.656;11.302;2022-11-30T02:57:53;98441.53;;;18.34;51.07
33163;BME280;29282;45.656;11.302;2022-11-30T03:00:19;98435.25;;;18.33;50.94
33163;BME280;29282;45.656;11.302;2022-11-30T03:02:44;98446.22;;;18.33;50.78
33163;BME280;29282;45.656;11.302;2022-11-30T03:05:10;98443.97;;;18.35;50.81
33163;BME280;29282;45.656;11.302;2022-11-30T03:07:35;98430.56;;;18.34;50.81
33163;BME280;29282;45.656;11.302;2022-11-30T03:10:02;98429.44;;;18.35;50.87
33163;BME280;29282;45.656;11.302;2022-11-30T03:12:28;98433.66;;;18.32;50.67
33163;BME280;29282;45.656;11.302;2022-11-30T03:14:53;98433.97;;;18.30;50.98
33163;BME280;29282;45.656;11.302;2022-11-30T03:17:19;98430.56;;;18.34;50.68
33163;BME280;29282;45.656;11.302;2022-11-30T03:19:44;98433.31;;;18.34;50.74
33163;BME280;29282;45.656;11.302;2022-11-30T03:22:10;98428.16;;;18.32;50.78
33163;BME280;29282;45.656;11.302;2022-11-30T03:24:35;98425.75;;;18.30;50.83
33163;BME280;29282;45.656;11.302;2022-11-30T03:27:01;98423.47;;;18.33;50.79
33163;BME280;29282;45.656;11.302;2022-11-30T03:29:27;98432.84;;;18.31;50.92
33163;BME280;29282;45.656;11.302;2022-11-30T03:31:52;98433.66;;;18.32;50.76
33163;BME280;29282;45.656;11.302;2022-11-30T03:34:18;98433.97;;;18.30;50.86
33163;BME280;29282;45.656;11.302;2022-11-30T03:36:43;98435.91;;;18.30;50.95
33163;BME280;29282;45.656;11.302;2022-11-30T03:39:09;98435.09;;;18.29;50.91
33163;BME280;29282;45.656;11.302;2022-11-30T03:41:34;98435.09;;;18.29;50.80
33163;BME280;29282;45.656;11.302;2022-11-30T03:44:00;98442.53;;;18.29;51.00
33163;BME280;29282;45.656;11.302;2022-11-30T03:46:26;98433.97;;;18.30;50.65
33163;BME280;29282;45.656;11.302;2022-11-30T03:48:52;98438.66;;;18.30;50.72
33163;BME280;29282;45.656;11.302;2022-11-30T03:51:17;98437.53;;;18.31;50.67
33163;BME280;29282;45.656;11.302;2022-11-30T03:53:43;98440.59;;;18.29;50.71
33163;BME280;29282;45.656;11.302;2022-11-30T03:56:09;98440.09;;;18.27;50.79
33163;BME280;29282;45.656;11.302;2022-11-30T03:58:35;98449.31;;;18.31;51.05
33163;BME280;29282;45.656;11.302;2022-11-30T04:01:21;98443.34;;;18.29;50.76
33163;BME280;29282;45.656;11.302;2022-11-30T04:03:48;98441.75;;;18.28;50.77
33163;BME280;29282;45.656;11.302;2022-11-30T04:06:14;98452.72;;;18.28;50.75
33163;BME280;29282;45.656;11.302;2022-11-30T04:08:40;98447.53;;;18.27;50.83
33163;BME280;29282;45.656;11.302;2022-11-30T04:11:07;98449.16;;;18.28;50.75
33163;BME280;29282;45.656;11.302;2022-11-30T04:13:33;98444.78;;;18.27;50.64
33163;BME280;29282;45.656;11.302;2022-11-30T04:16:00;98444.78;;;18.27;50.70
33163;BME280;29282;45.656;11.302;2022-11-30T04:18:27;98450.28;;;18.27;50.72
33163;BME280;29282;45.656;11.302;2022-11-30T04:20:55;98444.78;;;18.27;50.87
33163;BME280;29282;45.656;11.302;2022-11-30T04:23:22;98449.81;;;18.25;50.83
33163;BME280;29282;45.656;11.302;2022-11-30T04:25:48;98456.91;;;18.26;50.70
33163;BME280;29282;45.656;11.302;2022-11-30T04:28:15;98450.63;;;18.25;50.67
33163;BME280;29282;45.656;11.302;2022-11-30T04:30:41;98453.38;;;18.25;50.82
33163;BME280;29282;45.656;11.302;2022-11-30T04:33:07;98453.38;;;18.25;50.64
33163;BME280;29282;45.656;11.302;2022-11-30T04:35:38;98456.09;;;18.25;50.67
33163;BME280;29282;45.656;11.302;2022-11-30T04:38:05;98456.09;;;18.25;50.86
33163;BME280;29282;45.656;11.302;2022-11-30T04:40:31;98464.34;;;18.25;50.66
33163;BME280;29282;45.656;11.302;2022-11-30T04:42:56;98457.56;;;18.23;50.79
33163;BME280;29282;45.656;11.302;2022-11-30T04:45:21;98462.72;;;18.24;50.66
33163;BME280;29282;45.656;11.302;2022-11-30T04:47:47;98463.53;;;18.25;50.67
33163;BME280;29282;45.656;11.302;2022-11-30T04:50:13;98468.19;;;18.24;50.63
33163;BME280;29282;45.656;11.302;2022-11-30T04:52:39;98468.19;;;18.24;50.79
33163;BME280;29282;45.656;11.302;2022-11-30T04:55:05;98466.28;;;18.25;50.66
33163;BME280;29282;45.656;11.302;2022-11-30T04:57:31;98468.19;;;18.24;50.62
33163;BME280;29282;45.656;11.302;2022-11-30T04:59:56;98461.59;;;18.25;50.56
33163;BME280;29282;45.656;11.302;2022-11-30T05:02:22;98470.63;;;18.26;50.58
33163;BME280;29282;45.656;11.302;2022-11-30T05:04:47;98469.47;;;18.27;50.66
33163;BME280;29282;45.656;11.302;2022-11-30T05:07:13;98462.06;;;18.27;50.60
33163;BME280;29282;45.656;11.302;2022-11-30T05:09:38;98465.63;;;18.28;50.52
33163;BME280;29282;45.656;11.302;2022-11-30T05:12:04;98469.16;;;18.28;50.61
33163;BME280;29282;45.656;11.302;2022-11-30T05:14:29;98462.88;;;18.28;50.48
33163;BME280;29282;45.656;11.302;2022-11-30T05:16:55;98461.59;;;18.25;50.45
33163;BME280;29282;45.656;11.302;2022-11-30T05:19:20;98459.31;;;18.27;50.50
33163;BME280;29282;45.656;11.302;2022-11-30T05:21:46;98456.09;;;18.25;50.53
33163;BME280;29282;45.656;11.302;2022-11-30T05:24:11;98465.13;;;18.26;50.51
33163;BME280;29282;45.656;11.302;2022-11-30T05:26:37;98462.06;;;18.27;50.58
33163;BME280;29282;45.656;11.302;2022-11-30T05:29:03;98453.03;;;18.27;50.37
33163;BME280;29282;45.656;11.302;2022-11-30T05:31:29;98466.41;;;18.28;50.51
33163;BME280;29282;45.656;11.302;2022-11-30T05:33:55;98465.13;;;18.35;51.09
33163;BME280;29282;45.656;11.302;2022-11-30T05:36:21;98473.34;;;18.35;52.45
33163;BME280;29282;45.656;11.302;2022-11-30T05:38:47;98477.19;;;18.34;52.43
33163;BME280;29282;45.656;11.302;2022-11-30T05:41:12;98483.03;;;18.32;52.12
33163;BME280;29282;45.656;11.302;2022-11-30T05:43:39;98476.75;;;18.31;51.88
33163;BME280;29282;45.656;11.302;2022-11-30T05:46:06;98472.06;;;18.32;51.77
33163;BME280;29282;45.656;11.302;2022-11-30T05:48:32;98471.25;;;18.31;51.59
33163;BME280;29282;45.656;11.302;2022-11-30T05:51:12;98474.00;;;18.31;51.51
33163;BME280;29282;45.656;11.302;2022-11-30T05:53:40;98474.00;;;18.31;51.48
33163;BME280;29282;45.656;11.302;2022-11-30T05:56:08;98474.00;;;18.31;51.42
33163;BME280;29282;45.656;11.302;2022-11-30T05:58:35;98464.13;;;18.30;51.24
33163;BME280;29282;45.656;11.302;2022-11-30T06:01:01;98476.75;;;18.31;51.25
33163;BME280;29282;45.656;11.302;2022-11-30T06:03:28;98475.44;;;18.29;51.38
33163;BME280;29282;45.656;11.302;2022-11-30T06:05:54;98480.78;;;18.25;51.49
33163;BME280;29282;45.656;11.302;2022-11-30T06:08:20;98475.75;;;18.27;51.35
33163;BME280;29282;45.656;11.302;2022-11-30T06:10:46;98480.94;;;18.29;51.13
33163;BME280;29282;45.656;11.302;2022-11-30T06:13:12;98479.47;;;18.31;51.07
33163;BME280;29282;45.656;11.302;2022-11-30T06:15:38;98489.66;;;18.31;51.15
33163;BME280;29282;45.656;11.302;2022-11-30T06:18:05;98489.97;;;18.29;51.02
33163;BME280;29282;45.656;11.302;2022-11-30T06:20:31;98491.91;;;18.29;51.22
33163;BME280;29282;45.656;11.302;2022-11-30T06:22:57;98489.16;;;18.29;51.18
33163;BME280;29282;45.656;11.302;2022-11-30T06:25:24;98491.09;;;18.28;50.93
33163;BME280;29282;45.656;11.302;2022-11-30T06:27:50;98488.38;;;18.28;51.26
33163;BME280;29282;45.656;11.302;2022-11-30T06:30:15;98491.09;;;18.28;51.17
33163;BME280;29282;45.656;11.302;2022-11-30T06:32:45;98496.09;;;18.26;51.03
33163;BME280;29282;45.656;11.302;2022-11-30T06:35:11;98501.09;;;18.24;51.18
33163;BME280;29282;45.656;11.302;2022-11-30T06:37:37;98500.00;;;18.25;51.27
33163;BME280;29282;45.656;11.302;2022-11-30T06:40:02;98501.94;;;18.25;51.30
33163;BME280;29282;45.656;11.302;2022-11-30T06:42:29;98515.66;;;18.25;51.16
33163;BME280;29282;45.656;11.302;2022-11-30T06:44:55;98506.59;;;18.24;51.22
33163;BME280;29282;45.656;11.302;2022-11-30T06:47:21;98507.72;;;18.23;51.42
33163;BME280;29282;45.656;11.302;2022-11-30T06:49:47;98514.00;;;18.24;51.22
33163;BME280;29282;45.656;11.302;2022-11-30T06:52:12;98517.25;;;18.26;51.20
33163;BME280;29282;45.656;11.302;2022-11-30T06:54:38;98520.78;;;18.26;51.30
33163;BME280;29282;45.656;11.302;2022-11-30T06:57:03;98524.34;;;18.27;51.33
33163;BME280;29282;45.656;11.302;2022-11-30T06:59:29;98534.50;;;18.26;51.32
33163;BME280;29282;45.656;11.302;2022-11-30T07:01:54;98521.13;;;18.25;51.32
33163;BME280;29282;45.656;11.302;2022-11-30T07:04:20;98530.16;;;18.25;51.20
33163;BME280;29282;45.656;11.302;2022-11-30T07:06:46;98529.34;;;18.25;51.34
33163;BME280;29282;45.656;11.302;2022-11-30T07:09:11;98536.75;;;18.24;51.44
33163;BME280;29282;45.656;11.302;2022-11-30T07:11:38;98547.72;;;18.24;51.26
33163;BME280;29282;45.656;11.302;2022-11-30T07:14:03;98546.13;;;18.23;51.44
33163;BME280;29282;45.656;11.302;2022-11-30T07:16:29;98556.78;;;18.25;51.32
33163;BME280;29282;45.656;11.302;2022-11-30T07:18:54;98554.50;;;18.27;51.26
33163;BME280;29282;45.656;11.302;2022-11-30T07:21:20;98555.00;;;18.29;51.28
33163;BME280;29282;45.656;11.302;2022-11-30T07:23:45;98559.69;;;18.28;51.26
33163;BME280;29282;45.656;11.302;2022-11-30T07:26:29;98554.03;;;18.25;51.46
33163;BME280;29282;45.656;11.302;2022-11-30T07:28:55;98560.31;;;18.25;51.50
33163;BME280;29282;45.656;11.302;2022-11-30T07:31:26;98564.19;;;18.24;51.42
33163;BME280;29282;45.656;11.302;2022-11-30T07:33:53;98559.03;;;18.23;51.36
33163;BME280;29282;45.656;11.302;2022-11-30T07:36:20;98557.44;;;18.22;51.54
33163;BME280;29282;45.656;11.302;2022-11-30T07:38:46;98562.91;;;18.22;51.71
33163;BME280;29282;45.656;11.302;2022-11-30T07:41:12;98566.47;;;18.22;51.48
33163;BME280;29282;45.656;11.302;2022-11-30T07:43:38;98566.47;;;18.22;51.41
33163;BME280;29282;45.656;11.302;2022-11-30T07:46:04;98562.13;;;18.21;51.39
33163;BME280;29282;45.656;11.302;2022-11-30T07:48:29;98564.88;;;18.21;51.32
33163;BME280;29282;45.656;11.302;2022-11-30T07:51:15;98553.91;;;18.21;51.44
33163;BME280;29282;45.656;11.302;2022-11-30T07:53:41;98552.25;;;18.20;51.45
33163;BME280;29282;45.656;11.302;2022-11-30T07:56:10;98551.16;;;18.21;51.34
33163;BME280;29282;45.656;11.302;2022-11-30T07:58:36;98555.50;;;18.22;51.40
33163;BME280;29282;45.656;11.302;2022-11-30T08:01:08;98559.38;;;18.21;51.32
33163;BME280;29282;45.656;11.302;2022-11-30T08:03:35;98555.81;;;18.21;51.24
33163;BME280;29282;45.656;11.302;2022-11-30T08:06:05;98571.16;;;18.22;51.20
33163;BME280;29282;45.656;11.302;2022-11-30T08:08:36;98576.63;;;18.22;51.31
33163;BME280;29282;45.656;11.302;2022-11-30T08:11:03;98578.88;;;18.20;51.43
33163;BME280;29282;45.656;11.302;2022-11-30T08:13:29;98581.31;;;18.21;51.22
33163;BME280;29282;45.656;11.302;2022-11-30T08:16:00;98587.13;;;18.20;51.42
33163;BME280;29282;45.656;11.302;2022-11-30T08:18:26;98588.72;;;18.21;51.31
33163;BME280;29282;45.656;11.302;2022-11-30T08:20:58;98596.94;;;18.21;51.31
33163;BME280;29282;45.656;11.302;2022-11-30T08:23:26;98596.94;;;18.21;51.29
33163;BME280;29282;45.656;11.302;2022-11-30T08:25:52;98596.94;;;18.21;51.17
33163;BME280;29282;45.656;11.302;2022-11-30T08:28:17;98604.38;;;18.20;51.31
33163;BME280;29282;45.656;11.302;2022-11-30T08:30:43;98598.88;;;18.20;51.17
33163;BME280;29282;45.656;11.302;2022-11-30T08:33:08;98596.94;;;18.21;51.25
33163;BME280;29282;45.656;11.302;2022-11-30T08:35:34;98595.34;;;18.20;51.16
33163;BME280;29282;45.656;11.302;2022-11-30T08:37:59;98597.28;;;18.19;51.29
33163;BME280;29282;45.656;11.302;2022-11-30T08:40:25;98601.63;;;18.20;51.13
33163;BME280;29282;45.656;11.302;2022-11-30T08:42:50;98603.91;;;18.18;51.20
33163;BME280;29282;45.656;11.302;2022-11-30T08:45:16;98598.41;;;18.18;51.20
33163;BME280;29282;45.656;11.302;2022-11-30T08:47:41;98604.72;;;18.19;51.30
33163;BME280;29282;45.656;11.302;2022-11-30T08:50:07;98608.56;;;18.18;51.26
33163;BME280;29282;45.656;11.302;2022-11-30T08:52:33;98601.63;;;18.20;51.09
33163;BME280;29282;45.656;11.302;2022-11-30T08:54:58;98607.44;;;18.19;51.10
33163;BME280;29282;45.656;11.302;2022-11-30T08:57:24;98602.75;;;18.19;51.06
33163;BME280;29282;45.656;11.302;2022-11-30T08:59:51;98607.09;;;18.20;51.16
33163;BME280;29282;45.656;11.302;2022-11-30T09:02:17;98603.56;;;18.20;51.05
33163;BME280;29282;45.656;11.302;2022-11-30T09:04:44;98608.25;;;18.19;50.94
33163;BME280;29282;45.656;11.302;2022-11-30T09:07:11;98615.34;;;18.20;51.09
33163;BME280;29282;45.656;11.302;2022-11-30T09:09:37;98612.59;;;18.20;51.12
33163;BME280;29282;45.656;11.302;2022-11-30T09:12:02;98611.78;;;18.20;51.20
33163;BME280;29282;45.656;11.302;2022-11-30T09:14:28;98609.06;;;18.20;51.03
33163;BME280;29282;45.656;11.302;2022-11-30T09:16:53;98611.00;;;18.19;51.11
33163;BME280;29282;45.656;11.302;2022-11-30T09:19:20;98605.50;;;18.19;51.01
33163;BME280;29282;45.656;11.302;2022-11-30T09:21:46;98606.66;;;18.18;51.11
33163;BME280;29282;45.656;11.302;2022-11-30T09:24:11;98605.50;;;18.19;51.11
33163;BME280;29282;45.656;11.302;2022-11-30T09:26:37;98605.50;;;18.19;51.08
33163;BME280;29282;45.656;11.302;2022-11-30T09:29:03;98611.00;;;18.19;50.94
33163;BME280;29282;45.656;11.302;2022-11-30T09:31:28;98602.28;;;18.17;51.04
33163;BME280;29282;45.656;11.302;2022-11-30T09:33:55;98604.22;;;18.17;50.96
33163;BME280;29282;45.656;11.302;2022-11-30T09:36:22;98613.25;;;18.17;50.96
33163;BME280;29282;45.656;11.302;2022-11-30T09:38:48;98606.16;;;18.16;51.02
33163;BME280;29282;45.656;11.302;2022-11-30T09:47:53;98595.19;;;18.16;50.96
33163;BME280;29282;45.656;11.302;2022-11-30T09:50:25;98586.47;;;18.14;51.01
33163;BME280;29282;45.656;11.302;2022-11-30T09:52:55;98589.69;;;18.16;50.85
33163;BME280;29282;45.656;11.302;2022-11-30T09:55:42;98590.84;;;18.15;51.07
33163;BME280;29282;45.656;11.302;2022-11-30T09:58:20;98588.09;;;18.15;51.03
33163;BME280;29282;45.656;11.302;2022-11-30T10:00:47;98586.16;;;18.16;50.99
33163;BME280;29282;45.656;11.302;2022-11-30T10:03:13;98588.09;;;18.15;51.11
33163;BME280;29282;45.656;11.302;2022-11-30T10:05:54;98585.66;;;18.14;51.03
33163;BME280;29282;45.656;11.302;2022-11-30T10:08:38;98580.19;;;18.14;50.96
33163;BME280;29282;45.656;11.302;2022-11-30T10:16:55;98572.28;;;18.12;50.91
33163;BME280;29282;45.656;11.302;2022-11-30T10:22:43;98571.16;;;18.13;50.89
33163;BME280;29282;45.656;11.302;2022-11-30T10:25:22;98562.13;;;18.13;51.07
33163;BME280;29282;45.656;11.302;2022-11-30T10:27:52;98561.31;;;18.12;51.02
33163;BME280;29282;45.656;11.302;2022-11-30T10:30:20;98561.31;;;18.12;50.91
33163;BME280;29282;45.656;11.302;2022-11-30T10:32:51;98563.28;;;18.12;50.98
33163;BME280;29282;45.656;11.302;2022-11-30T10:36:02;98562.44;;;18.11;50.98
33163;BME280;29282;45.656;11.302;2022-11-30T10:38:20;98554.22;;;18.11;51.01
33163;BME280;29282;45.656;11.302;2022-11-30T10:41:00;98553.09;;;18.12;51.01
33163;BME280;29282;45.656;11.302;2022-11-30T10:46:27;98544.88;;;18.12;50.89
33163;BME280;29282;45.656;11.302;2022-11-30T10:51:21;98539.69;;;18.11;51.01
33163;BME280;29282;45.656;11.302;2022-11-30T10:53:46;98536.97;;;18.11;50.91
33163;BME280;29282;45.656;11.302;2022-11-30T10:56:13;98537.75;;;18.11;50.96
33163;BME280;29282;45.656;11.302;2022-11-30T10:58:49;98526.78;;;18.11;51.18
33163;BME280;29282;45.656;11.302;2022-11-30T11:01:38;98523.25;;;18.11;51.08
33163;BME280;29282;45.656;11.302;2022-11-30T11:12:20;98528.72;;;18.11;51.02
33163;BME280;29282;45.656;11.302;2022-11-30T11:15:07;98519.72;;;18.10;50.99
33163;BME280;29282;45.656;11.302;2022-11-30T11:17:33;98524.03;;;18.11;51.06
33163;BME280;29282;45.656;11.302;2022-11-30T11:19:58;98520.84;;;18.09;51.04
33163;BME280;29282;45.656;11.302;2022-11-30T11:22:29;98518.91;;;18.10;50.90
33163;BME280;29282;45.656;11.302;2022-11-30T11:25:23;98507.94;;;18.10;50.91
33163;BME280;29282;45.656;11.302;2022-11-30T11:27:54;98516.16;;;18.10;51.00
33163;BME280;29282;45.656;11.302;2022-11-30T11:30:29;98511.81;;;18.08;51.05
33163;BME280;29282;45.656;11.302;2022-11-30T11:38:03;98503.91;;;18.07;51.16
33163;BME280;29282;45.656;11.302;2022-11-30T11:40:29;98505.84;;;18.06;51.09
33163;BME280;29282;45.656;11.302;2022-11-30T11:42:55;98501.50;;;18.05;50.96
33163;BME280;29282;45.656;11.302;2022-11-30T11:45:27;98494.38;;;18.04;50.99
33163;BME280;29282;45.656;11.302;2022-11-30T11:48:00;98492.47;;;18.05;51.00
33163;BME280;29282;45.656;11.302;2022-11-30T11:53:16;98489.75;;;18.05;51.17
33163;BME280;29282;45.656;11.302;2022-11-30T11:56:05;98485.38;;;18.04;51.04
33163;BME280;29282;45.656;11.302;2022-11-30T12:01:43;98489.88;;;18.08;50.94
33163;BME280;29282;45.656;11.302;2022-11-30T12:06:38;98480.03;;;18.07;51.25
33163;BME280;29282;45.656;11.302;2022-11-30T12:09:27;98479.22;;;18.07;51.16
33163;BME280;29282;45.656;11.302;2022-11-30T12:11:54;98463.91;;;18.06;51.59
33163;BME280;29282;45.656;11.302;2022-11-30T12:14:23;98480.38;;;18.06;51.59
33163;BME280;29282;45.656;11.302;2022-11-30T12:19:26;98473.28;;;18.05;51.72
33163;BME280;29282;45.656;11.302;2022-11-30T12:22:17;98470.53;;;18.05;51.51
33163;BME280;29282;45.656;11.302;2022-11-30T12:28:27;98465.72;;;18.02;51.61
33163;BME280;29282;45.656;11.302;2022-11-30T12:31:14;98460.53;;;18.00;51.70
33163;BME280;29282;45.656;11.302;2022-11-30T12:33:57;98464.44;;;17.99;51.84
33163;BME280;29282;45.656;11.302;2022-11-30T12:43:00;98471.34;;;17.97;51.85
33163;BME280;29282;45.656;11.302;2022-11-30T12:45:43;98474.91;;;17.97;51.89
33163;BME280;29282;45.656;11.302;2022-11-30T12:51:20;98459.09;;;17.94;51.81
33163;BME280;29282;45.656;11.302;2022-11-30T12:57:22;98456.69;;;17.93;51.94
33163;BME280;29282;45.656;11.302;2022-11-30T13:00:03;98456.69;;;17.93;51.97
33163;BME280;29282;45.656;11.302;2022-11-30T13:02:53;98455.09;;;17.92;51.84
33163;BME280;29282;45.656;11.302;2022-11-30T13:05:33;98466.88;;;17.92;52.09
33163;BME280;29282;45.656;11.302;2022-11-30T13:13:04;98452.69;;;17.90;51.93
33163;BME280;29282;45.656;11.302;2022-11-30T13:15:33;98446.72;;;17.88;51.88
33163;BME280;29282;45.656;11.302;2022-11-30T13:18:00;98442.06;;;17.89;51.94
33163;BME280;29282;45.656;11.302;2022-11-30T13:28:55;98437.69;;;17.88;51.86
33163;BME280;29282;45.656;11.302;2022-11-30T13:31:44;98438.97;;;17.90;51.88
33163;BME280;29282;45.656;11.302;2022-11-30T13:34:25;98437.03;;;17.91;52.14
33163;BME280;29282;45.656;11.302;2022-11-30T13:37:12;98437.38;;;17.89;52.85
33163;BME280;29282;45.656;11.302;2022-11-30T13:39:53;98436.56;;;17.89;52.72
33163;BME280;29282;45.656;11.302;2022-11-30T13:42:28;98435.78;;;17.88;52.70
33163;BME280;29282;45.656;11.302;2022-11-30T13:45:18;98437.69;;;17.88;52.83
33163;BME280;29282;45.656;11.302;2022-11-30T13:47:51;98436.88;;;17.87;52.93
33163;BME280;29282;45.656;11.302;2022-11-30T13:50:37;98432.53;;;17.86;52.82
33163;BME280;29282;45.656;11.302;2022-11-30T13:53:05;98431.75;;;17.86;52.85
33163;BME280;29282;45.656;11.302;2022-11-30T13:58:15;98439.16;;;17.85;52.89
33163;BME280;29282;45.656;11.302;2022-11-30T14:05:48;98428.50;;;17.83;52.70
33163;BME280;29282;45.656;11.302;2022-11-30T14:08:31;98421.44;;;17.82;53.07
33163;BME280;29282;45.656;11.302;2022-11-30T14:17:12;98422.88;;;17.89;52.58
33163;BME280;29282;45.656;11.302;2022-11-30T14:19:43;98418.50;;;17.88;52.72
33163;BME280;29282;45.656;11.302;2022-11-30T14:22:10;98421.22;;;17.88;52.91
33163;BME280;29282;45.656;11.302;2022-11-30T14:24:37;98423.50;;;17.86;52.86
33163;BME280;29282;45.656;11.302;2022-11-30T14:27:04;98419.97;;;17.85;52.93
33163;BME280;29282;45.656;11.302;2022-11-30T14:29:35;98424.16;;;17.82;53.04
33163;BME280;29282;45.656;11.302;2022-11-30T14:32:10;98422.56;;;17.81;52.94
33163;BME280;29282;45.656;11.302;2022-11-30T14:34:42;98420.63;;;17.82;53.46
33163;BME280;29282;45.656;11.302;2022-11-30T14:37:22;98414.00;;;17.83;52.94
33163;BME280;29282;45.656;11.302;2022-11-30T14:39:48;98412.88;;;17.84;53.21
33163;BME280;29282;45.656;11.302;2022-11-30T14:42:26;98414.81;;;17.83;53.25